Time;durP1;ratioP1;P1;durP2;ratioP2;P2;SDS_P1;SDS_P2;PMS_P1;PMS_P2;Temp;Humidity;BMP_temperature;BMP_pressure;BME280_temperature;BME280_humidity;BME280_pressure;Samples;Min_cycle;Max_cycle;Signal;HPM_P1;HPM_P2
2022/01/14 00:02:09;;;;;;;372.75;64.10;;;5.50;99.90;;;;;;5112023;28;20117;-71
2022/01/14 00:04:36;;;;;;;420.65;66.60;;;5.80;99.90;;;;;;5112273;28;20051;-71
2022/01/14 00:07:02;;;;;;;415.73;66.43;;;5.40;99.90;;;;;;5112163;28;20075;-71
2022/01/14 00:09:30;;;;;;;428.17;68.50;;;5.60;99.90;;;;;;5111879;28;20051;-70
2022/01/14 00:11:58;;;;;;;434.50;71.45;;;;;;;;;;5129824;27;20047;-71
2022/01/14 00:14:40;;;;;;;463.70;72.63;;;5.70;99.90;;;;;;5095054;28;20040;-71
2022/01/14 00:17:08;;;;;;;477.55;73.70;;;5.50;99.90;;;;;;5112103;28;20040;-71
2022/01/14 00:19:34;;;;;;;456.52;73.60;;;4.70;99.90;;;;;;5112002;28;20075;-71
2022/01/14 00:22:06;;;;;;;451.33;72.32;;;5.70;99.90;;;;;;5111611;28;20039;-71
2022/01/14 00:31:41;;;;;;;441.15;72.50;;;;;;;;;;5111480;28;20529;-71
2022/01/14 00:35:46;;;;;;;450.33;71.20;;;;;;;;;;5077840;28;20082;-71
2022/01/14 00:38:13;;;;;;;466.42;69.13;;;5.60;99.90;;;;;;5111441;28;20083;-71
2022/01/14 00:40:40;;;;;;;410.92;68.50;;;6.00;99.90;;;;;;5111097;28;20047;-71
2022/01/14 00:43:06;;;;;;;426.88;69.60;;;5.70;99.90;;;;;;5111475;28;20178;-71
2022/01/14 00:45:34;;;;;;;383.50;66.60;;;5.50;99.90;;;;;;5111234;28;20767;-71
2022/01/14 00:48:04;;;;;;;341.38;62.05;;;5.50;99.90;;;;;;5111045;28;20491;-71
2022/01/14 00:50:30;;;;;;;348.48;62.25;;;5.30;99.90;;;;;;5111123;28;20052;-71
2022/01/14 00:52:56;;;;;;;333.35;60.13;;;5.50;99.90;;;;;;5111100;28;20055;-71
2022/01/14 00:55:28;;;;;;;335.38;61.88;;;5.90;99.90;;;;;;5111221;28;20593;-71
2022/01/14 01:00:31;;;;;;;293.73;58.90;;;5.60;99.90;;;;;;5110681;28;20154;-71
2022/01/14 01:02:57;;;;;;;289.15;59.35;;;5.00;99.90;;;;;;5111161;28;20047;-71
2022/01/14 01:05:24;;;;;;;256.20;54.83;;;5.10;99.90;;;;;;5111265;28;20100;-71
2022/01/14 01:08:05;;;;;;;208.18;51.30;;;5.80;99.90;;;;;;5110320;28;20058;-71
2022/01/14 01:10:32;;;;;;;184.25;48.42;;;5.60;99.90;;;;;;5110650;28;20051;-71
2022/01/14 01:13:10;;;;;;;156.38;46.08;;;5.60;99.90;;;;;;5093525;28;20039;-71
2022/01/14 01:15:37;;;;;;;161.88;46.85;;;5.70;99.90;;;;;;5110463;28;20047;-71
2022/01/14 01:18:04;;;;;;;129.55;43.30;;;;;;;;;;5093477;28;20130;-71
2022/01/14 01:20:31;;;;;;;122.82;42.35;;;;;;;;;;5110640;28;20062;-71
2022/01/14 01:22:57;;;;;;;115.15;41.10;;;;;;;;;;5110796;28;20493;-71
2022/01/14 01:25:26;;;;;;;133.40;43.25;;;6.00;99.90;;;;;;5110498;28;20044;-71
2022/01/14 01:27:54;;;;;;;121.03;43.60;;;;;;;;;;5110368;28;20529;-71
2022/01/14 01:32:56;;;;;;;130.25;42.85;;;6.00;99.90;;;;;;5110054;28;20112;-71
2022/01/14 01:35:22;;;;;;;115.78;42.28;;;5.90;99.90;;;;;;5093424;28;20063;-71
2022/01/14 01:37:48;;;;;;;124.38;41.95;;;6.40;99.90;;;;;;5110416;28;20040;-71
2022/01/14 01:40:15;;;;;;;119.03;42.92;;;6.00;99.90;;;;;;5110458;28;20097;-71
2022/01/14 01:42:44;;;;;;;99.45;40.67;;;6.00;99.90;;;;;;5110095;28;20043;-71
2022/01/14 01:45:14;;;;;;;114.65;43.40;;;6.20;99.90;;;;;;5110250;28;20164;-71
2022/01/14 01:47:41;;;;;;;105.75;40.50;;;6.20;99.90;;;;;;5111271;28;20463;-71
2022/01/14 01:50:09;;;;;;;113.60;41.33;;;6.20;99.90;;;;;;5110074;28;20058;-71
2022/01/14 01:52:35;;;;;;;108.85;41.70;;;;;;;;;;5109827;28;20510;-71
2022/01/14 01:55:01;;;;;;;125.32;46.15;;;6.20;99.90;;;;;;5109863;28;20070;-69
2022/01/14 01:57:28;;;;;;;133.13;46.05;;;6.00;99.90;;;;;;5127511;27;20562;-69
2022/01/14 01:59:54;;;;;;;145.70;47.80;;;5.90;99.90;;;;;;5092904;28;20119;-69
2022/01/14 02:02:20;;;;;;;167.43;49.42;;;6.30;99.90;;;;;;5126912;27;20126;-69
2022/01/14 02:04:49;;;;;;;165.75;49.45;;;5.50;99.90;;;;;;5111763;28;20040;-69
2022/01/14 02:07:16;;;;;;;180.60;51.38;;;6.20;99.90;;;;;;5127149;27;20489;-69
2022/01/14 02:09:42;;;;;;;163.55;50.13;;;;;;;;;;5109648;28;20070;-69
2022/01/14 02:12:10;;;;;;;158.18;51.17;;;;;;;;;;5108635;28;20055;-70
2022/01/14 02:22:55;;;;;;;204.73;55.40;;;5.90;99.90;;;;;;5111373;28;20150;-70
2022/01/14 02:25:29;;;;;;;208.98;55.00;;;5.50;99.90;;;;;;5110277;28;20425;-69
2022/01/14 02:27:57;;;;;;;201.68;55.00;;;5.90;99.90;;;;;;5110067;28;20054;-69
2022/01/14 02:30:25;;;;;;;215.02;55.67;;;5.80;99.90;;;;;;5109728;28;20130;-69
2022/01/14 02:32:51;;;;;;;210.60;55.67;;;6.30;99.90;;;;;;5110921;28;20035;-68
2022/01/14 02:35:20;;;;;;;218.15;56.13;;;6.30;99.90;;;;;;5109840;28;20384;-68
2022/01/14 02:37:46;;;;;;;224.95;58.47;;;6.00;99.90;;;;;;5092667;28;20048;-68
2022/01/14 02:40:13;;;;;;;203.85;55.33;;;5.80;99.90;;;;;;5108987;28;20118;-68
2022/01/14 02:42:40;;;;;;;227.38;58.05;;;;;;;;;;5109241;28;20047;-68
2022/01/14 02:45:10;;;;;;;228.20;57.13;;;5.60;99.90;;;;;;5110507;28;20453;-68
2022/01/14 02:47:36;;;;;;;220.20;56.97;;;;;;;;;;5092870;28;20101;-68
2022/01/14 02:50:07;;;;;;;218.90;57.05;;;6.00;99.90;;;;;;5092342;28;20130;-68
2022/01/14 02:55:18;;;;;;;208.27;54.30;;;6.00;99.90;;;;;;5109235;28;20071;-68
2022/01/14 02:57:54;;;;;;;205.18;55.30;;;5.80;99.90;;;;;;5109230;28;20517;-68
2022/01/14 03:00:21;;;;;;;;;;;5.80;99.90;;;;;;5109891;28;20380;-68
2022/01/14 03:02:49;;;;;;;194.75;54.00;;;5.70;99.90;;;;;;5109230;28;19927;-68
2022/01/14 03:05:17;;;;;;;204.00;54.35;;;5.90;99.90;;;;;;5092373;28;20483;-68
2022/01/14 03:07:45;;;;;;;193.93;54.25;;;6.00;99.90;;;;;;5109972;28;20089;-68
2022/01/14 03:10:15;;;;;;;192.98;53.67;;;5.90;99.90;;;;;;5091796;28;20058;-68
2022/01/14 03:12:43;;;;;;;183.40;51.90;;;6.00;99.90;;;;;;5108845;28;20087;-68
2022/01/14 03:15:11;;;;;;;192.82;53.20;;;5.70;99.90;;;;;;5109159;28;20092;-68
2022/01/14 03:17:38;;;;;;;217.55;54.60;;;5.70;99.90;;;;;;5126021;28;20047;-69
2022/01/14 03:20:09;;;;;;;191.68;53.40;;;5.70;99.90;;;;;;5108838;28;20075;-68
2022/01/14 03:22:37;;;;;;;183.35;53.33;;;;;;;;;;5109603;28;20051;-68
2022/01/14 03:27:47;;;;;;;193.63;52.72;;;6.40;99.90;;;;;;5112537;28;20422;-69
2022/01/14 03:30:13;;;;;;;190.07;51.92;;;5.30;99.90;;;;;;5129938;27;20052;-70
2022/01/14 03:32:40;;;;;;;184.20;52.30;;;5.60;99.90;;;;;;5112545;28;20043;-70
2022/01/14 03:35:07;;;;;;;189.90;52.17;;;5.80;99.90;;;;;;5112639;28;20051;-69
2022/01/14 03:37:36;;;;;;;194.27;53.30;;;6.00;99.90;;;;;;5113571;28;20495;-70
2022/01/14 03:40:05;;;;;;;193.52;54.15;;;5.80;99.90;;;;;;5116835;27;20097;-69
2022/01/14 03:42:31;;;;;;;209.65;54.92;;;6.10;99.90;;;;;;5092264;28;20048;-70
2022/01/14 03:44:58;;;;;;;192.90;52.67;;;6.10;99.90;;;;;;5109455;28;20046;-70
2022/01/14 03:47:24;;;;;;;186.70;52.30;;;5.70;99.90;;;;;;5092906;28;20047;-69
2022/01/14 03:49:50;;;;;;;196.77;54.13;;;5.10;99.90;;;;;;5109536;28;20048;-69
2022/01/14 03:52:17;;;;;;;215.73;54.92;;;5.80;99.90;;;;;;5092193;28;20102;-70
2022/01/14 03:54:43;;;;;;;226.35;55.85;;;;;;;;;;5103868;28;20043;-69
2022/01/14 03:57:09;;;;;;;210.70;55.80;;;5.70;99.90;;;;;;5112395;28;20032;-69
2022/01/14 03:59:35;;;;;;;203.25;53.75;;;;;;;;;;5112129;28;20051;-69
2022/01/14 04:02:02;;;;;;;208.65;54.97;;;;;;;;;;5112027;28;20403;-70
2022/01/14 04:04:28;;;;;;;193.27;53.15;;;5.50;99.90;;;;;;5094985;28;20039;-69
2022/01/14 04:06:53;;;;;;;200.38;55.13;;;5.90;99.90;;;;;;5111998;28;20122;-69
2022/01/14 04:09:19;;;;;;;201.98;54.58;;;5.20;99.90;;;;;;5129011;27;20091;-69
2022/01/14 04:11:45;;;;;;;203.38;55.00;;;5.90;99.90;;;;;;5094993;28;20100;-70
2022/01/14 04:16:57;;;;;;;184.13;53.55;;;;;;;;;;5091496;28;20048;-69
2022/01/14 04:19:27;;;;;;;189.23;53.50;;;5.80;99.90;;;;;;5091529;28;20054;-68
2022/01/14 04:21:53;;;;;;;197.35;54.95;;;;;;;;;;5091455;28;20439;-68
2022/01/14 04:24:21;;;;;;;196.73;54.10;;;5.70;99.90;;;;;;5091214;28;20040;-68
2022/01/14 04:26:47;;;;;;;208.98;55.33;;;5.30;99.90;;;;;;5091551;28;20112;-68
2022/01/14 04:29:12;;;;;;;197.20;55.03;;;5.80;99.90;;;;;;5082786;28;20483;-68
2022/01/14 04:31:38;;;;;;;198.40;54.53;;;6.40;99.90;;;;;;5111590;28;20055;-67
2022/01/14 04:34:04;;;;;;;209.98;55.38;;;;;;;;;;5110383;28;20043;-68
2022/01/14 04:36:31;;;;;;;183.52;53.85;;;5.90;99.90;;;;;;5111486;28;20044;-68
2022/01/14 04:38:57;;;;;;;184.20;54.15;;;5.60;99.90;;;;;;5111311;28;20046;-68
2022/01/14 04:41:22;;;;;;;192.43;54.67;;;5.90;99.90;;;;;;5111620;28;20493;-68
2022/01/14 04:43:49;;;;;;;190.05;54.10;;;5.80;99.90;;;;;;5128465;27;20047;-68
2022/01/14 04:48:53;;;;;;;207.98;55.45;;;5.70;99.90;;;;;;5110934;28;20040;-68
2022/01/14 04:51:22;;;;;;;210.93;56.50;;;5.70;99.90;;;;;;5112255;28;20088;-68
2022/01/14 04:53:48;;;;;;;190.35;55.33;;;5.80;99.90;;;;;;5110769;28;20051;-68
2022/01/14 04:56:14;;;;;;;202.93;54.20;;;5.90;99.90;;;;;;5111178;28;20088;-68
2022/01/14 04:58:41;;;;;;;179.55;53.95;;;6.30;99.90;;;;;;5110911;28;20043;-68
2022/01/14 05:01:10;;;;;;;191.93;55.00;;;5.10;99.90;;;;;;5111109;28;20433;-68
2022/01/14 05:03:36;;;;;;;210.02;56.83;;;5.50;99.90;;;;;;5110883;28;20032;-68
2022/01/14 05:06:05;;;;;;;202.57;54.33;;;5.70;99.90;;;;;;5110289;28;20103;-68
2022/01/14 05:08:39;;;;;;;199.13;54.28;;;;;;;;;;5110447;28;20063;-68
2022/01/14 05:13:42;;;;;;;175.88;52.53;;;;;;;;;;5111152;28;20047;-70
2022/01/14 05:16:08;;;;;;;168.40;51.53;;;5.70;99.90;;;;;;5093537;28;20046;-70
2022/01/14 05:18:37;;;;;;;153.18;50.35;;;5.80;99.90;;;;;;5110158;28;20040;-70
2022/01/14 05:21:04;;;;;;;158.07;48.85;;;5.70;99.90;;;;;;5093560;28;20050;-70
2022/01/14 05:23:29;;;;;;;148.52;48.00;;;5.50;99.90;;;;;;5110680;28;20414;-70
2022/01/14 05:25:55;;;;;;;136.13;46.63;;;;;;;;;;5110788;28;20047;-70
2022/01/14 05:28:21;;;;;;;132.10;46.42;;;;;;;;;;5110706;28;20078;-70
2022/01/14 05:30:47;;;;;;;138.25;47.30;;;5.60;99.90;;;;;;5110291;28;20126;-70
2022/01/14 05:33:15;;;;;;;142.38;47.65;;;5.60;99.90;;;;;;5110188;28;20127;-70
2022/01/14 05:35:41;;;;;;;138.60;45.58;;;5.70;99.90;;;;;;5110542;28;20092;-69
2022/01/14 05:38:07;;;;;;;156.50;48.55;;;5.80;99.90;;;;;;5092654;28;20138;-70
2022/01/14 05:40:33;;;;;;;161.45;50.47;;;5.70;99.90;;;;;;5110483;28;20582;-69
2022/01/14 05:42:59;;;;;;;165.00;50.83;;;5.80;99.90;;;;;;5093180;28;20043;-69
2022/01/14 05:45:25;;;;;;;176.68;51.10;;;5.90;99.90;;;;;;5111175;28;20100;-70
2022/01/14 05:47:51;;;;;;;182.77;51.97;;;;;;;;;;5110266;28;20048;-69
2022/01/14 05:50:22;;;;;;;185.45;51.25;;;5.90;99.90;;;;;;5110114;28;20101;-69
2022/01/14 05:52:49;;;;;;;191.68;52.55;;;;;;;;;;5110123;28;20083;-67
2022/01/14 05:55:17;;;;;;;181.60;51.35;;;5.50;99.90;;;;;;5109995;28;20047;-68
2022/01/14 05:57:44;;;;;;;173.23;50.60;;;;;;;;;;5109741;28;20503;-67
2022/01/14 06:00:12;;;;;;;168.05;49.25;;;5.20;99.90;;;;;;5109953;28;20176;-67
2022/01/14 06:02:38;;;;;;;171.70;49.35;;;5.90;99.90;;;;;;5110413;28;20493;-67
2022/01/14 06:05:04;;;;;;;168.95;49.58;;;5.80;99.90;;;;;;5109921;28;20255;-68
2022/01/14 06:07:30;;;;;;;162.48;48.47;;;5.50;99.90;;;;;;5092745;28;20514;-68
2022/01/14 06:09:56;;;;;;;156.05;48.90;;;;;;;;;;5119368;27;20051;-67
2022/01/14 06:12:22;;;;;;;149.60;47.30;;;;;;;;;;5092318;28;20407;-68
2022/01/14 06:14:48;;;;;;;140.43;47.22;;;5.50;99.90;;;;;;5089321;28;20047;-68
2022/01/14 06:17:13;;;;;;;146.38;47.95;;;5.80;99.90;;;;;;5107108;27;20035;-68
2022/01/14 06:19:39;;;;;;;144.93;47.53;;;;;;;;;;5119659;27;20549;-68
2022/01/14 06:22:06;;;;;;;131.95;46.92;;;5.30;99.90;;;;;;5121274;27;20039;-68
2022/01/14 06:24:32;;;;;;;142.38;46.97;;;5.70;99.90;;;;;;5120617;27;20415;-68
2022/01/14 06:26:58;;;;;;;132.88;44.72;;;;;;;;;;5113390;27;20047;-68
2022/01/14 06:29:24;;;;;;;121.20;44.05;;;5.70;99.90;;;;;;5120489;28;20456;-68
2022/01/14 06:31:51;;;;;;;124.97;45.70;;;;;;;;;;5108714;28;20051;-68
2022/01/14 06:34:16;;;;;;;114.40;43.25;;;5.50;99.90;;;;;;5091114;28;20040;-68
2022/01/14 06:36:42;;;;;;;117.70;43.25;;;4.80;99.90;;;;;;5108157;28;20105;-68
2022/01/14 06:39:08;;;;;;;113.90;43.05;;;;;;;;;;5073396;28;20051;-68
2022/01/14 06:41:35;;;;;;;106.05;42.58;;;;;;;;;;5087890;28;20127;-68
2022/01/14 06:44:01;;;;;;;121.00;43.45;;;5.80;99.90;;;;;;5070701;28;20048;-68
2022/01/14 06:46:27;;;;;;;111.18;42.38;;;;;;;;;;5087905;28;20066;-68
2022/01/14 06:48:53;;;;;;;107.25;41.58;;;;;;;;;;5087484;28;20052;-68
2022/01/14 06:51:18;;;;;;;110.70;42.55;;;5.70;99.90;;;;;;5087599;28;20483;-68
2022/01/14 06:53:44;;;;;;;105.97;41.83;;;5.50;99.90;;;;;;5087765;28;20285;-68
2022/01/14 06:56:11;;;;;;;106.13;42.65;;;5.90;99.90;;;;;;5088184;28;20052;-68
2022/01/14 06:58:37;;;;;;;100.07;41.72;;;5.10;99.90;;;;;;5104717;28;20053;-68
2022/01/14 07:01:03;;;;;;;108.90;42.60;;;;;;;;;;5111797;28;20091;-68
2022/01/14 07:03:29;;;;;;;97.03;40.65;;;5.90;99.90;;;;;;5095621;28;20048;-70
2022/01/14 07:05:55;;;;;;;96.30;39.47;;;5.20;99.90;;;;;;5095084;28;20988;-70
2022/01/14 07:08:20;;;;;;;99.20;41.13;;;5.60;99.90;;;;;;5111931;28;20060;-70
2022/01/14 07:10:46;;;;;;;95.07;40.13;;;;;;;;;;5094674;28;20047;-70
2022/01/14 07:13:12;;;;;;;102.43;40.33;;;;;;;;;;5111880;28;20079;-70
2022/01/14 07:15:42;;;;;;;79.22;37.47;;;5.40;99.90;;;;;;5112791;28;20122;-70
2022/01/14 07:18:09;;;;;;;77.65;37.63;;;;;;;;;;5113455;28;20410;-70
2022/01/14 07:20:35;;;;;;;83.50;36.88;;;5.80;99.90;;;;;;5114803;28;20489;-70
2022/01/14 07:23:01;;;;;;;83.75;37.35;;;;;;;;;;5114502;28;20073;-70
2022/01/14 07:25:28;;;;;;;81.65;38.05;;;5.70;99.90;;;;;;5113042;28;20078;-70
2022/01/14 07:27:54;;;;;;;75.85;36.28;;;;;;;;;;5130044;27;20135;-70
2022/01/14 07:30:20;;;;;;;79.22;37.03;;;5.60;99.90;;;;;;5114411;28;20035;-70
2022/01/14 07:32:45;;;;;;;78.43;36.70;;;5.40;99.90;;;;;;5114255;28;20055;-70
2022/01/14 07:35:12;;;;;;;72.10;35.80;;;5.80;99.90;;;;;;5129927;27;20105;-70
2022/01/14 07:37:38;;;;;;;81.63;37.53;;;5.70;99.90;;;;;;5113811;28;20114;-70
2022/01/14 07:40:05;;;;;;;73.03;35.20;;;5.70;99.90;;;;;;5113957;28;20114;-70
2022/01/14 07:42:30;;;;;;;71.45;34.22;;;5.90;99.90;;;;;;5113908;28;20399;-70
2022/01/14 07:44:56;;;;;;;72.65;35.05;;;6.60;99.90;;;;;;5114028;28;20044;-70
2022/01/14 07:47:22;;;;;;;66.43;35.80;;;5.90;99.90;;;;;;5112694;28;20491;-70
2022/01/14 07:49:48;;;;;;;71.43;35.47;;;6.10;99.90;;;;;;5112758;28;20104;-70
2022/01/14 07:52:14;;;;;;;77.38;36.03;;;5.90;99.90;;;;;;5129530;27;20050;-70
2022/01/14 07:54:40;;;;;;;72.25;35.50;;;5.00;99.90;;;;;;5112290;28;20082;-70
2022/01/14 07:57:07;;;;;;;73.00;35.17;;;5.20;99.90;;;;;;5113666;28;20067;-70
2022/01/14 07:59:35;;;;;;;66.63;33.88;;;4.90;99.90;;;;;;5111950;28;20039;-70
2022/01/14 08:02:01;;;;;;;69.78;33.97;;;5.10;99.90;;;;;;5113441;28;20071;-70
2022/01/14 08:04:32;;;;;;;65.03;33.63;;;5.70;99.90;;;;;;5112546;28;20463;-70
2022/01/14 08:07:08;;;;;;;67.10;34.58;;;6.10;99.90;;;;;;5112034;28;20075;-70
2022/01/14 08:09:34;;;;;;;70.53;33.75;;;5.80;99.90;;;;;;5111858;28;20473;-70
2022/01/14 08:12:00;;;;;;;65.57;32.85;;;;;;;;;;5111897;28;20130;-70
2022/01/14 08:14:25;;;;;;;71.60;33.88;;;5.70;99.90;;;;;;5113434;28;20118;-70
2022/01/14 08:16:51;;;;;;;65.50;33.30;;;;;;;;;;5112982;28;20118;-70
2022/01/14 08:19:17;;;;;;;70.00;34.88;;;;;;;;;;5112839;28;20414;-70
2022/01/14 08:21:43;;;;;;;62.70;33.90;;;;;;;;;;5112906;28;20526;-70
2022/01/14 08:24:09;;;;;;;58.47;32.58;;;5.80;99.90;;;;;;5111676;28;20078;-70
2022/01/14 08:26:35;;;;;;;71.93;34.55;;;5.70;99.90;;;;;;5111499;28;20126;-70
2022/01/14 08:29:01;;;;;;;63.92;32.30;;;;;;;;;;5112522;27;20510;-68
2022/01/14 08:31:27;;;;;;;65.22;32.67;;;6.00;99.90;;;;;;5111597;28;20237;-68
2022/01/14 08:33:53;;;;;;;67.45;32.92;;;5.70;99.90;;;;;;5112720;28;20126;-68
2022/01/14 08:36:18;;;;;;;67.70;33.25;;;6.20;99.90;;;;;;5111315;28;20042;-70
2022/01/14 08:38:44;;;;;;;63.90;33.25;;;5.80;99.90;;;;;;5111447;28;20501;-68
2022/01/14 08:41:10;;;;;;;63.65;32.95;;;;;;;;;;5111553;28;20455;-69
2022/01/14 08:43:36;;;;;;;59.47;32.58;;;6.00;99.90;;;;;;5111965;28;20369;-68
2022/01/14 08:46:04;;;;;;;68.05;31.20;;;6.10;99.90;;;;;;5112762;28;20054;-69
2022/01/14 08:48:30;;;;;;;61.08;31.52;;;6.40;99.90;;;;;;5112559;28;20035;-68
2022/01/14 08:50:56;;;;;;;57.47;31.50;;;5.90;99.90;;;;;;5111323;28;20510;-68
2022/01/14 08:53:22;;;;;;;60.22;31.10;;;6.30;99.90;;;;;;5112337;28;20477;-69
2022/01/14 08:55:48;;;;;;;56.03;31.05;;;;;;;;;;5112370;28;20097;-68
2022/01/14 08:58:17;;;;;;;62.60;31.48;;;6.50;99.90;;;;;;5112437;28;20065;-68
2022/01/14 09:00:43;;;;;;;54.38;30.80;;;;;;;;;;5110941;28;20043;-68
2022/01/14 09:03:09;;;;;;;57.15;29.80;;;6.10;99.90;;;;;;5105916;27;20056;-68
2022/01/14 09:05:35;;;;;;;51.65;29.58;;;6.00;99.90;;;;;;5127272;27;20082;-69
2022/01/14 09:08:01;;;;;;;59.83;29.15;;;6.00;99.90;;;;;;5117804;27;20035;-69
2022/01/14 09:10:27;;;;;;;54.95;28.88;;;6.70;99.90;;;;;;5121494;27;20043;-68
2022/01/14 09:12:53;;;;;;;50.40;27.02;;;5.90;99.90;;;;;;5126972;27;20499;-70
2022/01/14 09:15:19;;;;;;;54.03;28.60;;;6.00;99.90;;;;;;5109654;28;20502;-70
2022/01/14 09:17:45;;;;;;;52.20;26.75;;;6.40;99.90;;;;;;5122395;27;20047;-70
2022/01/14 09:20:12;;;;;;;50.25;27.58;;;6.10;99.90;;;;;;5109312;28;20510;-70
2022/01/14 09:22:38;;;;;;;50.80;27.02;;;;;;;;;;5109932;27;20051;-70
2022/01/14 09:25:05;;;;;;;51.60;26.70;;;6.20;99.90;;;;;;5109931;28;20440;-70
2022/01/14 09:27:33;;;;;;;47.63;25.67;;;;;;;;;;5110103;28;20097;-70
2022/01/14 09:30:00;;;;;;;47.50;26.33;;;6.30;99.90;;;;;;5111169;27;20047;-70
2022/01/14 09:32:27;;;;;;;47.70;25.42;;;;;;;;;;5108154;28;20075;-70
2022/01/14 09:34:53;;;;;;;50.47;25.85;;;6.50;99.90;;;;;;5109753;28;20074;-68
2022/01/14 09:37:20;;;;;;;50.75;25.70;;;6.50;99.90;;;;;;5109687;28;20402;-68
2022/01/14 09:39:46;;;;;;;55.42;26.98;;;;;;;;;;5110503;27;20075;-68
2022/01/14 09:42:14;;;;;;;52.53;26.20;;;6.50;99.90;;;;;;5110328;28;20049;-68
2022/01/14 09:44:41;;;;;;;45.85;25.88;;;6.50;99.90;;;;;;5108908;28;20081;-68
2022/01/14 09:47:07;;;;;;;52.13;26.42;;;6.50;99.90;;;;;;5108681;28;20055;-69
2022/01/14 09:49:35;;;;;;;48.85;25.35;;;6.50;99.90;;;;;;5108808;28;20055;-69
2022/01/14 09:52:01;;;;;;;39.40;23.40;;;6.40;99.90;;;;;;5108929;28;20136;-68
2022/01/14 09:54:26;;;;;;;48.42;24.90;;;6.50;99.90;;;;;;5108737;28;20534;-68
2022/01/14 09:56:54;;;;;;;45.92;25.30;;;7.00;99.90;;;;;;5110642;28;20094;-68
2022/01/14 09:59:20;;;;;;;42.00;23.65;;;;;;;;;;5108579;28;20083;-68
2022/01/14 10:01:47;;;;;;;45.00;23.42;;;7.00;99.90;;;;;;5109640;28;20404;-69
2022/01/14 10:04:15;;;;;;;42.75;22.35;;;7.20;99.90;;;;;;5108645;27;20047;-69
2022/01/14 10:06:47;;;;;;;44.75;21.40;;;6.60;99.90;;;;;;5110376;28;20570;-68
2022/01/14 10:09:19;;;;;;;43.47;21.33;;;6.70;99.90;;;;;;5109362;27;20066;-68
2022/01/14 10:12:04;;;;;;;40.05;21.95;;;6.80;99.90;;;;;;5110081;28;20084;-68
2022/01/14 10:14:30;;;;;;;40.63;20.95;;;7.00;99.90;;;;;;5108492;27;20047;-69
2022/01/14 10:16:58;;;;;;;38.55;21.75;;;6.80;99.90;;;;;;5110334;28;20047;-68
2022/01/14 10:19:27;;;;;;;37.08;19.77;;;6.80;99.90;;;;;;5087717;28;20039;-69
2022/01/14 10:21:53;;;;;;;40.90;20.02;;;7.40;99.90;;;;;;5071440;28;20052;-68
2022/01/14 10:24:21;;;;;;;38.67;18.92;;;6.80;99.90;;;;;;5088277;28;20105;-69
2022/01/14 10:26:49;;;;;;;39.10;19.13;;;6.70;99.90;;;;;;5087843;28;20087;-69
2022/01/14 10:29:30;;;;;;;37.53;18.98;;;6.90;99.90;;;;;;5087904;28;20055;-69
2022/01/14 10:31:56;;;;;;;35.97;18.75;;;8.20;99.90;;;;;;5087268;28;20056;-69
2022/01/14 10:34:22;;;;;;;38.38;17.67;;;;;;;;;;5088211;28;20388;-69
2022/01/14 10:36:50;;;;;;;37.85;17.30;;;6.60;99.90;;;;;;5088045;28;20097;-69
2022/01/14 10:39:27;;;;;;;31.73;17.58;;;7.10;99.90;;;;;;5087948;28;20059;-69
2022/01/14 10:41:55;;;;;;;34.03;18.05;;;7.10;99.90;;;;;;5088142;28;20506;-69
2022/01/14 10:44:34;;;;;;;30.13;17.23;;;7.30;99.90;;;;;;5089163;28;20055;-69
2022/01/14 10:47:21;;;;;;;34.75;17.80;;;7.10;99.90;;;;;;5087619;28;20063;-69
2022/01/14 10:49:49;;;;;;;39.80;17.95;;;7.30;99.90;;;;;;5108620;28;20096;-69
2022/01/14 10:52:21;;;;;;;30.45;17.27;;;7.10;99.90;;;;;;5107865;28;20556;-69
2022/01/14 10:54:49;;;;;;;29.75;15.80;;;7.20;99.90;;;;;;5108567;28;20050;-69
2022/01/14 10:57:24;;;;;;;32.45;16.60;;;7.40;99.90;;;;;;5109522;27;20046;-69
2022/01/14 10:59:53;;;;;;;34.40;16.17;;;6.80;99.90;;;;;;5110882;28;20164;-71
2022/01/14 11:02:36;;;;;;;27.85;14.75;;;7.20;99.90;;;;;;5109914;27;20059;-71
2022/01/14 11:05:13;;;;;;;32.75;14.82;;;7.30;99.90;;;;;;5109066;28;20051;-71
2022/01/14 11:07:41;;;;;;;28.73;14.73;;;7.50;99.90;;;;;;5091518;28;20068;-69
2022/01/14 11:10:29;;;;;;;30.52;13.95;;;7.50;99.90;;;;;;5107596;28;20083;-69
2022/01/14 11:12:57;;;;;;;29.65;13.27;;;7.30;99.90;;;;;;5108294;28;20542;-69
2022/01/14 11:15:25;;;;;;;27.77;12.85;;;6.90;99.90;;;;;;5108036;28;20062;-69
2022/01/14 11:17:54;;;;;;;23.73;11.73;;;7.30;99.90;;;;;;5107724;28;20406;-71
2022/01/14 11:20:31;;;;;;;26.92;12.80;;;7.20;99.90;;;;;;5108084;28;20043;-71
2022/01/14 11:23:17;;;;;;;25.17;12.52;;;7.30;99.90;;;;;;5107971;28;20051;-71
2022/01/14 11:25:56;;;;;;;24.02;12.07;;;7.50;99.90;;;;;;5108277;28;20139;-71
2022/01/14 11:28:28;;;;;;;26.60;12.43;;;7.50;99.90;;;;;;5109279;27;20380;-71
2022/01/14 11:30:54;;;;;;;26.67;12.10;;;;;;;;;;5109630;27;20048;-71
2022/01/14 11:33:37;;;;;;;29.98;11.95;;;8.00;99.90;;;;;;5107288;28;20055;-71
2022/01/14 11:36:06;;;;;;;19.52;10.70;;;;;;;;;;5109775;28;20123;-71
2022/01/14 11:38:36;;;;;;;24.60;11.23;;;7.50;99.90;;;;;;5107735;28;20597;-71
2022/01/14 11:41:03;;;;;;;24.27;10.70;;;7.30;99.90;;;;;;5108048;28;20547;-71
2022/01/14 11:43:39;;;;;;;29.27;10.45;;;7.40;99.90;;;;;;5109577;27;20051;-71
2022/01/14 11:46:06;;;;;;;24.65;10.43;;;7.10;99.90;;;;;;5112892;28;20101;-71
2022/01/14 11:48:39;;;;;;;20.23;9.80;;;7.40;99.90;;;;;;5111084;28;20105;-71
2022/01/14 11:51:15;;;;;;;25.50;10.35;;;7.40;99.90;;;;;;5112846;28;20483;-71
2022/01/14 11:53:42;;;;;;;23.88;10.65;;;7.40;99.90;;;;;;5111488;28;20487;-71
2022/01/14 11:56:34;;;;;;;21.30;9.95;;;7.40;99.90;;;;;;5111428;28;20372;-71
2022/01/14 11:59:18;;;;;;;22.20;9.52;;;7.50;99.90;;;;;;5110668;28;20514;-71
2022/01/14 12:01:48;;;;;;;19.30;9.65;;;7.40;99.90;;;;;;5112539;28;20487;-71
2022/01/14 12:04:14;;;;;;;23.65;9.82;;;;;;;;;;5110452;28;20127;-71
2022/01/14 12:06:54;;;;;;;20.50;9.40;;;7.40;99.90;;;;;;5110465;28;20043;-71
2022/01/14 12:09:22;;;;;;;18.95;9.15;;;7.30;99.90;;;;;;5110258;28;20060;-71
2022/01/14 12:12:20;;;;;;;17.65;8.82;;;6.90;99.90;;;;;;5112484;28;20073;-71
2022/01/14 12:14:55;;;;;;;20.13;8.20;;;7.30;99.90;;;;;;5110724;28;20052;-70
2022/01/14 12:17:37;;;;;;;32.97;9.73;;;7.40;99.90;;;;;;5107875;28;20439;-71
2022/01/14 12:20:28;;;;;;;53.50;13.15;;;7.50;99.90;;;;;;5090533;28;20046;-71
2022/01/14 12:23:08;;;;;;;22.42;8.85;;;7.50;99.90;;;;;;5087913;28;20044;-71
2022/01/14 12:25:39;;;;;;;23.50;9.40;;;7.40;99.90;;;;;;5107995;28;20051;-71
2022/01/14 12:28:23;;;;;;;19.92;8.80;;;7.20;99.90;;;;;;5090617;28;20043;-71
2022/01/14 12:31:03;;;;;;;18.58;8.80;;;7.50;99.90;;;;;;5107445;28;20415;-71
2022/01/14 12:33:48;;;;;;;24.33;9.38;;;7.60;99.90;;;;;;5091929;28;20052;-71
2022/01/14 12:36:17;;;;;;;23.42;9.00;;;7.50;99.90;;;;;;5107268;28;20047;-71
2022/01/14 12:38:44;;;;;;;19.52;8.55;;;7.30;99.90;;;;;;5090272;28;20133;-70
2022/01/14 12:41:21;;;;;;;18.73;8.40;;;7.40;99.90;;;;;;5089897;28;20036;-70
2022/01/14 12:43:47;;;;;;;23.10;8.43;;;;;;;;;;5090701;28;20044;-71
2022/01/14 12:46:41;;;;;;;22.02;8.80;;;7.60;99.90;;;;;;5091480;28;20048;-71
2022/01/14 12:49:09;;;;;;;20.60;8.45;;;7.60;99.90;;;;;;5089665;27;20043;-71
2022/01/14 12:51:39;;;;;;;25.67;9.18;;;;;;;;;;5091123;28;20052;-71
2022/01/14 12:54:08;;;;;;;16.48;7.82;;;7.50;99.90;;;;;;5090017;28;20043;-71
2022/01/14 12:56:36;;;;;;;19.33;8.27;;;7.60;99.90;;;;;;5089050;28;20574;-71
2022/01/14 12:59:15;;;;;;;20.08;7.93;;;7.60;99.90;;;;;;5108551;28;20391;-71
2022/01/14 13:01:44;;;;;;;25.85;9.32;;;7.20;99.90;;;;;;5111829;27;20043;-71
2022/01/14 13:04:11;;;;;;;30.55;9.13;;;7.60;99.90;;;;;;5110379;28;20043;-71
2022/01/14 13:06:42;;;;;;;25.48;9.25;;;7.40;99.90;;;;;;5093810;28;20112;-71
2022/01/14 13:09:08;;;;;;;20.17;8.68;;;;;;;;;;5091384;28;20082;-71
2022/01/14 13:11:58;;;;;;;19.77;8.10;;;7.50;99.90;;;;;;5089704;28;20518;-69
2022/01/14 13:14:38;;;;;;;24.05;8.63;;;7.40;99.90;;;;;;5089716;28;20047;-69
2022/01/14 13:17:22;;;;;;;19.52;8.13;;;7.60;99.90;;;;;;5091193;28;20055;-70
2022/01/14 13:19:48;;;;;;;25.73;7.88;;;;;;;;;;5111393;28;20062;-69
2022/01/14 13:22:17;;;;;;;24.35;8.38;;;7.60;99.90;;;;;;5097005;27;20135;-69
2022/01/14 13:24:45;;;;;;;25.08;8.05;;;7.80;99.90;;;;;;5095674;28;20565;-70
2022/01/14 13:27:20;;;;;;;27.55;8.75;;;7.40;99.90;;;;;;5108177;27;20145;-69
2022/01/14 13:29:48;;;;;;;21.33;7.97;;;8.10;99.90;;;;;;5109896;28;20098;-69
2022/01/14 13:32:23;;;;;;;19.40;8.27;;;7.40;99.90;;;;;;5110825;27;20083;-69
2022/01/14 13:34:55;;;;;;;22.85;8.00;;;7.50;99.90;;;;;;5105593;28;20035;-69